Time;durP1;ratioP1;P1;durP2;ratioP2;P2;SDS_P1;SDS_P2;PMS_P1;PMS_P2;Temp;Humidity;BMP_temperature;BMP_pressure;BME280_temperature;BME280_humidity;BME280_pressure;Samples;Min_cycle;Max_cycle;Signal;HPM_P1;HPM_P2
2021/07/30 00:02:01;;;;;;;8.75;7.45;;;14.90;99.90;;;;;;5014662;28;20025;-75
2021/07/30 00:04:26;;;;;;;8.43;7.03;;;14.90;99.90;;;;;;5023494;28;20033;-74
2021/07/30 00:06:52;;;;;;;10.38;7.90;;;14.90;99.90;;;;;;5016606;28;20085;-76
2021/07/30 00:09:17;;;;;;;10.25;8.20;;;14.90;99.90;;;;;;5013427;28;20033;-73
2021/07/30 00:11:43;;;;;;;8.45;7.53;;;14.90;99.90;;;;;;5014404;28;20109;-73
2021/07/30 00:14:09;;;;;;;11.57;7.22;;;14.90;99.90;;;;;;5014423;28;20555;-73
2021/07/30 00:16:35;;;;;;;9.13;7.43;;;14.80;99.90;;;;;;5013653;28;20413;-71
2021/07/30 00:19:01;;;;;;;7.68;6.93;;;14.90;99.90;;;;;;5013769;28;20022;-71
2021/07/30 00:21:27;;;;;;;10.13;7.82;;;14.90;99.90;;;;;;5014164;28;20482;-73
2021/07/30 00:23:53;;;;;;;10.15;7.50;;;14.80;99.90;;;;;;5013608;28;20108;-73
2021/07/30 00:26:18;;;;;;;13.85;8.00;;;14.80;99.90;;;;;;5013371;28;20113;-73
2021/07/30 00:28:44;;;;;;;10.48;7.70;;;14.80;99.90;;;;;;5013937;28;20045;-71
2021/07/30 00:31:10;;;;;;;8.15;7.30;;;14.70;99.90;;;;;;4996454;28;20026;-73
2021/07/30 00:33:36;;;;;;;8.80;7.80;;;14.70;99.90;;;;;;4995920;28;20033;-72
2021/07/30 00:36:02;;;;;;;10.65;8.13;;;14.50;99.90;;;;;;5013204;28;20029;-72
2021/07/30 00:38:28;;;;;;;10.68;8.50;;;14.50;99.90;;;;;;5013872;28;20096;-72
2021/07/30 00:40:53;;;;;;;12.30;8.10;;;14.60;99.90;;;;;;5013612;28;20165;-73
2021/07/30 00:43:19;;;;;;;8.90;7.50;;;14.70;99.90;;;;;;4996162;28;20036;-71
2021/07/30 00:45:46;;;;;;;10.35;8.18;;;14.70;99.90;;;;;;5013018;28;20029;-72
2021/07/30 00:48:13;;;;;;;11.13;7.75;;;14.70;99.90;;;;;;5012090;28;20033;-71
2021/07/30 00:50:41;;;;;;;9.90;7.95;;;14.70;99.90;;;;;;5014345;28;20022;-72
2021/07/30 00:53:07;;;;;;;14.40;7.57;;;14.80;99.90;;;;;;5019768;28;20033;-72
2021/07/30 00:55:33;;;;;;;8.27;7.28;;;14.80;99.90;;;;;;5017414;28;20026;-72
2021/07/30 00:57:59;;;;;;;9.05;7.10;;;14.80;99.90;;;;;;5022218;28;20018;-72
2021/07/30 01:00:25;;;;;;;9.10;7.47;;;14.80;99.90;;;;;;5016576;28;20088;-73
2021/07/30 01:02:51;;;;;;;12.35;7.15;;;14.70;99.90;;;;;;5014221;28;20040;-72
2021/07/30 01:05:17;;;;;;;11.20;7.28;;;14.70;99.90;;;;;;5013754;28;20476;-73
2021/07/30 01:07:43;;;;;;;15.80;7.57;;;14.60;99.90;;;;;;5013950;28;20037;-73
2021/07/30 01:10:09;;;;;;;8.75;7.72;;;14.60;99.90;;;;;;5013181;28;20034;-72
2021/07/30 01:12:35;;;;;;;10.98;8.00;;;14.50;99.90;;;;;;5013177;28;20487;-74
2021/07/30 01:15:01;;;;;;;12.00;7.43;;;14.40;99.90;;;;;;5012364;28;20034;-73
2021/07/30 01:17:26;;;;;;;9.93;8.73;;;14.50;99.90;;;;;;5013574;28;20037;-73
2021/07/30 01:19:53;;;;;;;9.68;8.30;;;14.40;99.90;;;;;;5012721;28;20025;-71
2021/07/30 01:22:26;;;;;;;12.68;7.85;;;14.30;99.90;;;;;;5013025;28;20021;-72
2021/07/30 01:24:52;;;;;;;8.00;6.57;;;14.30;99.90;;;;;;5012440;28;20104;-72
2021/07/30 01:27:18;;;;;;;10.55;7.63;;;14.30;99.90;;;;;;5013109;28;20101;-72
2021/07/30 01:29:44;;;;;;;10.32;7.50;;;14.30;99.90;;;;;;5012556;28;20100;-72
2021/07/30 01:32:10;;;;;;;8.70;7.57;;;14.40;99.90;;;;;;5012780;28;20037;-74
2021/07/30 01:34:35;;;;;;;11.35;7.47;;;14.30;99.90;;;;;;5012090;28;20025;-73
2021/07/30 01:37:01;;;;;;;9.38;7.43;;;14.30;99.90;;;;;;4995315;28;20022;-72
2021/07/30 01:39:26;;;;;;;13.82;7.15;;;14.20;99.90;;;;;;5012826;28;20064;-72
2021/07/30 01:41:52;;;;;;;8.48;7.57;;;14.20;99.90;;;;;;5013445;28;20092;-73
2021/07/30 01:44:18;;;;;;;13.60;8.05;;;14.20;99.90;;;;;;5011161;28;20084;-73
2021/07/30 01:46:45;;;;;;;10.18;8.05;;;14.20;99.90;;;;;;5012454;28;20041;-73
2021/07/30 01:49:11;;;;;;;14.23;8.30;;;14.10;99.90;;;;;;5012476;28;20030;-72
2021/07/30 01:51:36;;;;;;;8.60;7.70;;;14.20;99.90;;;;;;5012498;28;20514;-72
2021/07/30 01:54:02;;;;;;;12.40;8.73;;;14.10;99.90;;;;;;4994690;28;20519;-74
2021/07/30 01:56:28;;;;;;;10.70;8.73;;;14.10;99.90;;;;;;5012491;28;20037;-74
2021/07/30 01:58:54;;;;;;;11.35;8.93;;;13.80;99.90;;;;;;5011236;28;20096;-73
2021/07/30 02:01:20;;;;;;;13.90;9.00;;;13.70;99.90;;;;;;5011459;28;20468;-72
2021/07/30 02:03:45;;;;;;;13.18;9.27;;;13.80;99.90;;;;;;5011811;28;20415;-72
2021/07/30 02:06:11;;;;;;;15.20;9.30;;;13.70;99.90;;;;;;5011596;28;20057;-72
2021/07/30 02:08:37;;;;;;;11.68;8.98;;;13.60;99.90;;;;;;5011984;28;20445;-73
2021/07/30 02:11:13;;;;;;;14.35;9.18;;;13.60;99.90;;;;;;5011955;28;20033;-73
2021/07/30 02:16:24;;;;;;;14.15;9.93;;;13.60;99.90;;;;;;5011579;28;20037;-72
2021/07/30 02:18:51;;;;;;;13.45;9.65;;;13.60;99.90;;;;;;5011730;28;20034;-73
2021/07/30 02:21:17;;;;;;;12.45;9.35;;;13.50;99.90;;;;;;5011920;28;20022;-72
2021/07/30 02:23:44;;;;;;;10.10;8.93;;;13.50;99.90;;;;;;5011972;28;20029;-72
2021/07/30 02:26:10;;;;;;;10.82;9.60;;;13.50;99.90;;;;;;5011254;28;20037;-72
2021/07/30 02:28:35;;;;;;;11.07;8.90;;;13.50;99.90;;;;;;5011367;28;20586;-73
2021/07/30 02:31:01;;;;;;;12.95;9.15;;;13.50;99.90;;;;;;5011618;28;20026;-72
2021/07/30 02:33:27;;;;;;;14.10;9.00;;;13.50;99.90;;;;;;5012192;28;20018;-72
2021/07/30 02:35:52;;;;;;;12.27;9.48;;;13.50;99.90;;;;;;5011094;28;20025;-72
2021/07/30 02:38:18;;;;;;;13.35;9.25;;;13.50;99.90;;;;;;5010792;28;20432;-72
2021/07/30 02:40:44;;;;;;;12.98;10.23;;;13.50;99.90;;;;;;4994017;28;20097;-73
2021/07/30 02:43:09;;;;;;;14.85;9.68;;;13.40;99.90;;;;;;5012026;28;20105;-73
2021/07/30 02:45:35;;;;;;;12.93;9.23;;;13.40;99.90;;;;;;5011062;28;20053;-73
2021/07/30 02:48:01;;;;;;;10.50;9.10;;;13.30;99.90;;;;;;5011024;28;20022;-72
2021/07/30 02:50:26;;;;;;;14.73;9.27;;;13.30;99.90;;;;;;5011374;28;20026;-73
2021/07/30 02:52:52;;;;;;;10.77;9.25;;;13.20;99.90;;;;;;5011793;28;20040;-73
2021/07/30 02:55:18;;;;;;;12.23;9.38;;;13.10;99.90;;;;;;5011050;28;20030;-72
2021/07/30 02:57:46;;;;;;;10.38;9.15;;;13.10;99.90;;;;;;5012072;28;20029;-73
2021/07/30 03:00:12;;;;;;;13.63;9.50;;;13.20;99.90;;;;;;5010550;28;20037;-73
2021/07/30 03:02:38;;;;;;;11.65;9.57;;;13.10;99.90;;;;;;5011991;28;20077;-73
2021/07/30 03:05:05;;;;;;;12.55;9.38;;;13.10;99.90;;;;;;5010999;28;20030;-73
2021/07/30 03:07:30;;;;;;;14.30;9.88;;;13.10;99.90;;;;;;5011949;28;20488;-74
2021/07/30 03:09:56;;;;;;;11.20;8.82;;;13.10;99.90;;;;;;5011953;28;20041;-73
2021/07/30 03:12:22;;;;;;;11.77;9.35;;;13.10;99.90;;;;;;5015786;28;20067;-73
2021/07/30 03:14:48;;;;;;;10.80;9.27;;;13.00;99.90;;;;;;5014973;28;20515;-73
2021/07/30 03:17:13;;;;;;;12.20;8.80;;;12.90;99.90;;;;;;5016020;28;20037;-72
2021/07/30 03:19:39;;;;;;;13.70;9.32;;;12.90;99.90;;;;;;5015236;28;20107;-73
2021/07/30 03:22:05;;;;;;;12.55;9.48;;;12.90;99.90;;;;;;5015180;28;20448;-72
2021/07/30 03:24:31;;;;;;;14.30;10.30;;;12.90;99.90;;;;;;5014909;28;20503;-73
2021/07/30 03:26:56;;;;;;;11.35;9.73;;;12.90;99.90;;;;;;5015321;28;20088;-72
2021/07/30 03:29:22;;;;;;;15.82;10.00;;;12.90;99.90;;;;;;5015573;28;20057;-72
2021/07/30 03:31:49;;;;;;;10.85;9.70;;;12.90;99.90;;;;;;5015210;28;20018;-72
2021/07/30 03:34:15;;;;;;;16.90;11.15;;;12.90;99.90;;;;;;5015022;28;20022;-72
2021/07/30 03:36:42;;;;;;;14.85;9.63;;;12.90;99.90;;;;;;5014744;28;20109;-72
2021/07/30 03:39:08;;;;;;;11.80;9.40;;;13.00;99.90;;;;;;5014889;28;20369;-72
2021/07/30 03:41:35;;;;;;;12.13;10.20;;;12.90;99.90;;;;;;4997777;28;20034;-72
2021/07/30 03:44:00;;;;;;;14.60;10.27;;;12.90;99.90;;;;;;5014729;28;20072;-72
2021/07/30 03:46:26;;;;;;;15.00;10.20;;;12.90;99.90;;;;;;5014185;28;20025;-72
2021/07/30 03:48:51;;;;;;;13.40;10.20;;;12.80;99.90;;;;;;5015015;28;20041;-72
2021/07/30 03:51:17;;;;;;;15.40;10.30;;;12.90;99.90;;;;;;5015344;28;20117;-73
2021/07/30 03:53:43;;;;;;;13.73;10.52;;;12.80;99.90;;;;;;5033203;28;20041;-73
2021/07/30 03:56:16;;;;;;;13.15;9.90;;;12.80;99.90;;;;;;5024635;28;20030;-72
2021/07/30 03:58:43;;;;;;;10.45;9.13;;;12.80;99.90;;;;;;4997040;28;20026;-73
2021/07/30 04:01:09;;;;;;;13.90;10.45;;;12.80;99.90;;;;;;5014524;28;20026;-73
2021/07/30 04:03:35;;;;;;;11.93;9.95;;;12.70;99.90;;;;;;5014687;28;20404;-73
2021/07/30 04:06:04;;;;;;;13.70;9.68;;;12.70;99.90;;;;;;5013854;28;20670;-73
2021/07/30 04:08:32;;;;;;;14.38;10.25;;;12.70;99.90;;;;;;5014357;28;20025;-73
2021/07/30 04:10:58;;;;;;;14.60;10.63;;;12.70;99.90;;;;;;5014556;28;20036;-73
2021/07/30 04:13:24;;;;;;;15.63;9.50;;;12.70;99.90;;;;;;5014617;28;20029;-73
2021/07/30 04:15:50;;;;;;;14.73;10.35;;;12.70;99.90;;;;;;4999863;28;20022;-72
2021/07/30 04:18:15;;;;;;;14.85;9.98;;;12.70;99.90;;;;;;5007142;28;20078;-73
2021/07/30 04:20:41;;;;;;;15.23;10.90;;;12.70;99.90;;;;;;4995261;28;20023;-73
2021/07/30 04:23:07;;;;;;;15.23;10.48;;;12.70;99.90;;;;;;4994274;28;20027;-72
2021/07/30 04:25:32;;;;;;;14.57;10.25;;;12.80;99.90;;;;;;4994238;28;20149;-74
2021/07/30 04:27:58;;;;;;;16.70;9.50;;;12.80;99.90;;;;;;4994684;28;20033;-73
2021/07/30 04:30:24;;;;;;;14.75;10.15;;;12.80;99.90;;;;;;5005146;28;20034;-72
2021/07/30 04:32:51;;;;;;;14.43;9.68;;;12.80;99.90;;;;;;5004656;28;20025;-72
2021/07/30 04:35:16;;;;;;;12.57;9.65;;;12.80;99.90;;;;;;5007066;28;20018;-72
2021/07/30 04:37:42;;;;;;;17.10;9.48;;;12.90;99.90;;;;;;5013049;28;20022;-72
2021/07/30 04:40:08;;;;;;;14.90;9.25;;;12.90;99.90;;;;;;4998237;28;20062;-73
2021/07/30 04:42:34;;;;;;;13.98;9.95;;;12.90;99.90;;;;;;4992920;28;20034;-71
2021/07/30 04:45:00;;;;;;;11.88;9.20;;;13.00;99.90;;;;;;4991836;28;20026;-70
2021/07/30 04:47:25;;;;;;;12.65;9.93;;;13.00;99.90;;;;;;5067577;23;20052;-76
2021/07/30 04:49:51;;;;;;;14.20;10.50;;;13.00;99.90;;;;;;5004764;28;20018;-75
2021/07/30 04:52:17;;;;;;;13.73;10.88;;;13.10;99.90;;;;;;4980545;28;20110;-75
2021/07/30 04:54:42;;;;;;;20.20;10.95;;;13.20;99.90;;;;;;4992478;28;20097;-75
2021/07/30 04:57:09;;;;;;;16.30;10.95;;;13.20;99.90;;;;;;4993498;28;20053;-74
2021/07/30 04:59:35;;;;;;;13.43;11.05;;;13.30;99.90;;;;;;4993689;28;20026;-72
2021/07/30 05:02:00;;;;;;;12.15;10.82;;;13.30;99.90;;;;;;5012692;28;20123;-75
2021/07/30 05:04:26;;;;;;;13.90;10.95;;;13.30;99.90;;;;;;4993876;28;20089;-75
2021/07/30 05:06:52;;;;;;;16.25;10.70;;;13.40;99.90;;;;;;5012624;28;20049;-73
2021/07/30 05:09:17;;;;;;;14.70;10.55;;;13.40;99.90;;;;;;5011606;28;20034;-71
2021/07/30 05:11:43;;;;;;;11.95;9.95;;;13.40;99.90;;;;;;5010715;28;20033;-71
2021/07/30 05:14:09;;;;;;;14.95;10.23;;;13.60;99.90;;;;;;5009446;28;20100;-72
2021/07/30 05:16:35;;;;;;;11.80;9.75;;;13.60;99.90;;;;;;4991439;28;20022;-70
2021/07/30 05:19:00;;;;;;;12.18;8.90;;;13.70;99.90;;;;;;5010928;28;20046;-70
2021/07/30 05:21:27;;;;;;;10.95;7.72;;;13.70;99.90;;;;;;5011397;28;20033;-70
2021/07/30 05:23:52;;;;;;;11.48;7.53;;;13.70;99.90;;;;;;5010914;28;20034;-74
2021/07/30 05:26:18;;;;;;;10.27;7.32;;;13.70;99.90;;;;;;5009599;28;20033;-73
2021/07/30 05:28:44;;;;;;;9.63;7.25;;;13.80;99.90;;;;;;4996576;28;20527;-72
2021/07/30 05:31:15;;;;;;;9.25;7.15;;;13.80;99.90;;;;;;5006326;28;20025;-72
2021/07/30 05:33:41;;;;;;;9.27;7.25;;;13.70;99.90;;;;;;5010888;28;20490;-72
2021/07/30 05:36:06;;;;;;;8.60;7.68;;;13.80;99.90;;;;;;5001176;28;20027;-72
2021/07/30 05:38:32;;;;;;;10.88;8.27;;;13.70;99.90;;;;;;4991466;28;20129;-73
2021/07/30 05:40:58;;;;;;;9.85;8.40;;;13.80;99.90;;;;;;4991325;28;20026;-74
2021/07/30 05:43:23;;;;;;;13.32;7.50;;;13.80;99.90;;;;;;4991537;28;20377;-74
2021/07/30 05:45:49;;;;;;;8.43;7.47;;;13.80;99.90;;;;;;4994917;28;20113;-73
2021/07/30 05:48:14;;;;;;;10.65;8.05;;;13.90;99.90;;;;;;4992909;28;20086;-73
2021/07/30 05:50:40;;;;;;;11.90;8.43;;;13.90;99.90;;;;;;5010908;28;20032;-74
2021/07/30 05:53:06;;;;;;;18.92;12.93;;;13.90;99.90;;;;;;5011046;28;20472;-74
2021/07/30 05:55:31;;;;;;;13.00;9.68;;;14.00;99.90;;;;;;5009412;28;20526;-73
2021/07/30 05:58:00;;;;;;;9.40;7.95;;;14.10;99.90;;;;;;5010770;28;20097;-73
2021/07/30 06:00:26;;;;;;;12.95;8.85;;;14.20;99.90;;;;;;5005140;28;20053;-74
2021/07/30 06:02:52;;;;;;;9.48;7.55;;;14.30;99.90;;;;;;4984953;28;20085;-73
2021/07/30 06:05:17;;;;;;;16.00;7.40;;;14.40;99.90;;;;;;5002742;28;20026;-73
2021/07/30 06:07:43;;;;;;;12.48;7.18;;;14.40;99.90;;;;;;5012000;28;20026;-73
2021/07/30 06:10:09;;;;;;;10.18;7.45;;;14.50;99.90;;;;;;5011642;28;20025;-73
2021/07/30 06:12:35;;;;;;;11.05;7.70;;;14.50;99.90;;;;;;5014119;28;20425;-73
2021/07/30 06:15:00;;;;;;;8.75;7.40;;;14.60;99.90;;;;;;5011689;28;20026;-73
2021/07/30 06:17:26;;;;;;;7.65;6.78;;;14.60;99.90;;;;;;5012709;28;20052;-73
2021/07/30 06:19:52;;;;;;;11.35;7.57;;;14.80;99.90;;;;;;5011558;28;20105;-73
2021/07/30 06:22:19;;;;;;;13.50;7.72;;;14.80;99.90;;;;;;5008687;28;20030;-73
2021/07/30 06:24:45;;;;;;;11.45;7.68;;;14.80;99.90;;;;;;5010147;28;20103;-72
2021/07/30 06:27:11;;;;;;;12.18;7.60;;;15.00;99.90;;;;;;5012003;28;20786;-73
2021/07/30 06:29:37;;;;;;;10.13;7.30;;;15.00;99.90;;;;;;5011905;28;20617;-73
2021/07/30 06:32:03;;;;;;;9.85;7.38;;;15.20;99.90;;;;;;4994127;28;20025;-73
2021/07/30 06:34:28;;;;;;;7.65;6.85;;;15.40;99.90;;;;;;5010711;28;20037;-74
2021/07/30 06:36:56;;;;;;;12.85;7.20;;;15.50;99.90;;;;;;4993700;28;20036;-73
2021/07/30 06:39:22;;;;;;;11.35;7.80;;;15.70;99.90;;;;;;5008728;28;20062;-72
2021/07/30 06:41:47;;;;;;;12.43;7.70;;;15.80;99.90;;;;;;4974560;28;20132;-73
2021/07/30 06:44:13;;;;;;;9.18;6.88;;;15.70;99.90;;;;;;4991849;28;20037;-73
2021/07/30 06:46:39;;;;;;;9.50;6.82;;;15.70;99.90;;;;;;4994259;28;20030;-73
2021/07/30 06:49:05;;;;;;;8.13;7.32;;;15.80;99.90;;;;;;5017849;28;20022;-74
2021/07/30 06:51:31;;;;;;;12.75;7.57;;;15.90;99.90;;;;;;5017678;28;20072;-74
2021/07/30 06:53:56;;;;;;;9.80;6.95;;;16.00;99.90;;;;;;5018347;28;20025;-74
2021/07/30 06:56:22;;;;;;;9.85;7.68;;;16.10;99.90;;;;;;5016954;28;20092;-73
2021/07/30 06:58:48;;;;;;;9.40;7.15;;;16.20;99.90;;;;;;5017623;28;20026;-73
2021/07/30 07:01:14;;;;;;;10.45;7.22;;;16.20;99.90;;;;;;5018078;28;20537;-73
2021/07/30 07:03:39;;;;;;;9.77;7.07;;;16.30;99.90;;;;;;5018059;28;20026;-73
2021/07/30 07:06:05;;;;;;;7.80;6.20;;;16.30;99.90;;;;;;5018354;28;20036;-73
2021/07/30 07:08:30;;;;;;;8.82;6.35;;;16.60;99.90;;;;;;5021349;28;20030;-74
2021/07/30 07:10:56;;;;;;;10.13;6.43;;;16.80;99.90;;;;;;5019305;28;20530;-74
2021/07/30 07:13:22;;;;;;;10.35;6.15;;;17.10;99.90;;;;;;5017978;28;20018;-74
2021/07/30 07:15:47;;;;;;;8.15;6.47;;;17.10;99.90;;;;;;5017471;28;20072;-73
2021/07/30 07:18:13;;;;;;;9.10;5.68;;;17.40;99.90;;;;;;5000051;28;20431;-73
2021/07/30 07:20:40;;;;;;;8.27;5.78;;;17.60;99.90;;;;;;5017600;28;20113;-74
2021/07/30 07:23:06;;;;;;;7.50;6.43;;;17.80;99.90;;;;;;5017983;28;20022;-74
2021/07/30 07:25:32;;;;;;;6.72;6.15;;;18.00;99.90;;;;;;5017354;28;20567;-74
2021/07/30 07:27:57;;;;;;;8.10;5.90;;;18.30;99.90;;;;;;5020315;28;20105;-74
2021/07/30 07:30:23;;;;;;;10.45;6.00;;;18.70;99.90;;;;;;5017508;28;20464;-73
2021/07/30 07:32:49;;;;;;;8.77;5.88;;;18.50;99.90;;;;;;5018063;28;20026;-73
2021/07/30 07:35:15;;;;;;;8.65;5.82;;;18.70;99.90;;;;;;5016853;28;20080;-73
2021/07/30 07:37:41;;;;;;;7.38;5.78;;;18.80;99.90;;;;;;5017729;28;20025;-73
2021/07/30 07:40:08;;;;;;;10.65;5.63;;;18.90;99.90;;;;;;5017541;28;20484;-74
2021/07/30 07:42:34;;;;;;;9.43;5.97;;;19.00;99.90;;;;;;5017709;28;20193;-73
2021/07/30 07:45:01;;;;;;;6.50;5.35;;;19.00;99.90;;;;;;5017157;28;20041;-74
2021/07/30 07:47:27;;;;;;;7.85;5.20;;;19.30;99.90;;;;;;5017181;28;20110;-73
2021/07/30 07:49:53;;;;;;;7.20;5.07;;;19.50;99.90;;;;;;5016150;28;20089;-74
2021/07/30 07:52:19;;;;;;;8.48;5.68;;;19.60;99.90;;;;;;5017350;28;20064;-74
2021/07/30 07:54:45;;;;;;;6.50;5.30;;;19.80;99.90;;;;;;5016521;28;20579;-74
2021/07/30 07:57:11;;;;;;;8.00;5.47;;;20.00;99.90;;;;;;5014498;28;20092;-73
2021/07/30 07:59:37;;;;;;;6.65;5.88;;;20.30;99.90;;;;;;5013155;28;20105;-73
2021/07/30 08:02:08;;;;;;;6.85;4.78;;;20.50;99.90;;;;;;5013276;28;20022;-74
2021/07/30 08:04:34;;;;;;;7.87;5.17;;;20.50;99.90;;;;;;5013546;28;20056;-74
2021/07/30 08:07:02;;;;;;;7.35;5.22;;;20.60;99.90;;;;;;5014243;28;20436;-73
2021/07/30 08:09:30;;;;;;;6.00;5.32;;;20.30;99.90;;;;;;4996338;28;20022;-73
2021/07/30 08:11:57;;;;;;;6.93;5.40;;;20.60;99.90;;;;;;5013363;28;20026;-73
2021/07/30 08:14:23;;;;;;;10.35;5.53;;;21.00;99.90;;;;;;5013679;28;20026;-72
2021/07/30 08:16:51;;;;;;;7.65;6.10;;;21.10;99.90;;;;;;5002612;28;20022;-72
2021/07/30 08:19:18;;;;;;;10.02;5.63;;;21.30;99.90;;;;;;4994150;28;20033;-71
2021/07/30 08:21:45;;;;;;;9.98;5.93;;;21.30;99.90;;;;;;4997108;28;20099;-72
2021/07/30 08:24:11;;;;;;;5.68;4.68;;;21.50;99.90;;;;;;5006057;28;20384;-74
2021/07/30 08:26:37;;;;;;;9.43;5.10;;;21.70;99.90;;;;;;5008039;28;20026;-73
2021/07/30 08:29:02;;;;;;;5.10;4.60;;;22.20;99.90;;;;;;5012697;28;20661;-72
2021/07/30 08:31:28;;;;;;;6.80;4.68;;;22.70;99.90;;;;;;5013991;28;20076;-73
2021/07/30 08:33:54;;;;;;;4.93;4.38;;;22.90;99.90;;;;;;5014157;28;20026;-72
2021/07/30 08:36:20;;;;;;;6.32;4.68;;;22.90;99.90;;;;;;5013242;28;20037;-73
2021/07/30 08:38:46;;;;;;;4.60;4.20;;;23.10;99.90;;;;;;5014034;28;20042;-73
2021/07/30 08:41:18;;;;;;;4.90;4.53;;;23.70;99.90;;;;;;5014089;28;20104;-73
2021/07/30 08:43:48;;;;;;;4.57;4.18;;;24.10;99.90;;;;;;5013939;28;20032;-72
2021/07/30 08:46:16;;;;;;;4.60;4.20;;;24.60;99.90;;;;;;5012671;28;20041;-73
2021/07/30 08:48:41;;;;;;;4.20;3.78;;;25.20;99.90;;;;;;5012086;28;20054;-72
2021/07/30 08:51:08;;;;;;;7.32;4.10;;;25.20;99.90;;;;;;5013373;28;20480;-71
2021/07/30 08:53:34;;;;;;;5.75;3.95;;;25.40;99.90;;;;;;5012368;28;20530;-72
2021/07/30 08:56:02;;;;;;;4.47;3.97;;;25.70;99.90;;;;;;5012659;28;20030;-72
2021/07/30 08:58:28;;;;;;;4.65;4.25;;;25.50;99.90;;;;;;5013325;28;20045;-71
2021/07/30 09:00:54;;;;;;;6.68;3.80;;;26.00;99.90;;;;;;5008961;28;20549;-72
2021/07/30 09:03:19;;;;;;;4.15;3.85;;;26.50;99.90;;;;;;5013244;28;20530;-73
2021/07/30 09:05:47;;;;;;;7.00;4.40;;;26.80;99.90;;;;;;5013072;28;20420;-73
2021/07/30 09:08:24;;;;;;;5.22;4.25;;;27.40;99.90;;;;;;5011683;28;20022;-72
2021/07/30 09:10:49;;;;;;;6.68;4.15;;;28.20;99.90;;;;;;4993496;28;20030;-72
2021/07/30 09:13:26;;;;;;;3.83;3.53;;;28.70;99.20;;;;;;4993460;28;20543;-72
2021/07/30 09:16:10;;;;;;;6.68;4.10;;;28.30;98.00;;;;;;4992346;28;20027;-71
2021/07/30 09:18:36;;;;;;;5.80;3.75;;;28.40;98.20;;;;;;4993220;28;20030;-72
2021/07/30 09:21:15;;;;;;;4.72;3.92;;;28.50;97.30;;;;;;4993539;28;20053;-72
2021/07/30 09:23:48;;;;;;;6.80;4.78;;;28.60;97.10;;;;;;4993472;28;20019;-72
2021/07/30 09:26:43;;;;;;;4.32;3.92;;;28.90;97.70;;;;;;4993057;28;20038;-72
2021/07/30 09:29:18;;;;;;;4.88;4.43;;;28.70;96.80;;;;;;4993210;28;20041;-71
2021/07/30 09:31:56;;;;;;;4.55;4.15;;;27.40;98.30;;;;;;4993060;28;20030;-71
2021/07/30 09:34:29;;;;;;;4.40;4.10;;;28.40;97.10;;;;;;4992428;28;20065;-71
2021/07/30 09:37:05;;;;;;;4.80;4.40;;;29.60;97.10;;;;;;4995107;28;20026;-71
2021/07/30 09:39:33;;;;;;;6.95;4.57;;;29.60;96.00;;;;;;5012383;28;20116;-70
2021/07/30 09:42:01;;;;;;;7.53;3.88;;;29.60;95.20;;;;;;5012661;28;20507;-72
2021/07/30 09:44:28;;;;;;;4.32;3.92;;;29.90;95.80;;;;;;5012060;28;20029;-73
2021/07/30 09:47:13;;;;;;;4.85;4.35;;;29.10;95.00;;;;;;5003574;28;20116;-72
2021/07/30 09:49:44;;;;;;;5.90;3.90;;;29.50;94.40;;;;;;5011770;28;20030;-72
2021/07/30 09:52:11;;;;;;;;;;;29.70;93.30;;;;;;4995008;28;20026;-72
2021/07/30 09:54:49;;;;;;;4.10;3.80;;;30.50;93.90;;;;;;5011407;28;19929;-72
2021/07/30 09:57:17;;;;;;;5.13;3.80;;;29.50;92.70;;;;;;5012016;28;20054;-71
2021/07/30 09:59:44;;;;;;;7.47;4.13;;;27.80;93.30;;;;;;5012220;28;20536;-71
2021/07/30 10:02:15;;;;;;;4.28;3.90;;;27.90;94.70;;;;;;5011645;28;20029;-70
2021/07/30 10:04:44;;;;;;;4.38;3.97;;;27.60;95.70;;;;;;4999217;28;20026;-72
2021/07/30 10:07:18;;;;;;;4.43;4.03;;;28.30;95.00;;;;;;4997002;28;20157;-71
2021/07/30 10:09:52;;;;;;;4.72;3.90;;;29.80;93.70;;;;;;5012041;28;20026;-71
2021/07/30 10:12:18;;;;;;;4.78;4.43;;;28.80;92.70;;;;;;5012639;28;20028;-71
2021/07/30 10:14:45;;;;;;;6.55;3.90;;;28.70;92.90;;;;;;5011947;28;20511;-71
2021/07/30 10:17:15;;;;;;;5.40;4.00;;;28.30;92.50;;;;;;5011911;28;20022;-71
2021/07/30 10:19:42;;;;;;;8.07;4.15;;;27.50;94.60;;;;;;5011261;28;20487;-71
2021/07/30 10:22:10;;;;;;;6.88;3.92;;;28.00;94.40;;;;;;5011843;28;20565;-71
2021/07/30 10:24:51;;;;;;;8.35;7.15;;;29.30;93.50;;;;;;5011562;28;20030;-74
2021/07/30 10:27:19;;;;;;;7.18;6.47;;;28.80;92.80;;;;;;5007267;28;20025;-76
2021/07/30 10:30:08;;;;;;;8.85;7.80;;;28.10;94.40;;;;;;5011957;28;20049;-73
2021/07/30 10:32:52;;;;;;;7.53;6.50;;;28.30;94.20;;;;;;5011605;28;20391;-75
2021/07/30 10:35:39;;;;;;;5.38;4.95;;;29.00;92.60;;;;;;5011183;28;20064;-74
2021/07/30 10:38:15;;;;;;;7.35;4.45;;;29.30;93.30;;;;;;5011027;28;20022;-74
2021/07/30 10:40:42;;;;;;;7.85;6.75;;;29.80;92.50;;;;;;4974778;28;20058;-74
2021/07/30 10:43:16;;;;;;;8.98;8.15;;;29.90;90.80;;;;;;4992805;28;20029;-74
2021/07/30 10:45:43;;;;;;;5.85;5.30;;;30.00;92.80;;;;;;4974225;28;20022;-74
2021/07/30 10:48:15;;;;;;;6.35;4.90;;;29.80;92.00;;;;;;4998137;28;20045;-73
2021/07/30 10:50:41;;;;;;;5.10;4.60;;;30.20;92.50;;;;;;5025157;23;20432;-70
2021/07/30 10:53:38;;;;;;;6.43;5.82;;;29.50;91.80;;;;;;4988506;28;20014;-69
2021/07/30 10:56:17;;;;;;;6.90;5.93;;;29.40;92.10;;;;;;4993420;28;20030;-70
2021/07/30 10:58:45;;;;;;;5.43;4.93;;;29.40;92.50;;;;;;5011592;28;20041;-69
2021/07/30 11:01:15;;;;;;;5.75;5.07;;;29.40;92.50;;;;;;5011424;28;20057;-69
2021/07/30 11:03:52;;;;;;;5.93;4.95;;;29.70;91.30;;;;;;5011604;28;20014;-69
2021/07/30 11:06:21;;;;;;;6.30;5.72;;;29.70;91.50;;;;;;4999415;28;20034;-69
2021/07/30 11:11:52;;;;;;;6.78;5.65;;;29.60;91.90;;;;;;4991902;28;20500;-69
2021/07/30 11:14:26;;;;;;;8.15;5.03;;;29.30;92.10;;;;;;4999512;28;20165;-69
2021/07/30 11:17:04;;;;;;;8.27;4.88;;;29.90;91.80;;;;;;5011364;28;20392;-69
2021/07/30 11:19:32;;;;;;;5.60;4.95;;;29.80;92.30;;;;;;4993583;28;20034;-70
2021/07/30 11:22:00;;;;;;;5.88;5.25;;;30.30;91.90;;;;;;4993471;28;20131;-70
2021/07/30 11:24:25;;;;;;;7.13;5.30;;;30.50;90.80;;;;;;5010831;28;20026;-70
2021/07/30 11:26:51;;;;;;;5.50;5.00;;;30.70;92.30;;;;;;5011279;28;20033;-70
2021/07/30 11:29:19;;;;;;;6.22;5.13;;;31.50;90.80;;;;;;5011124;28;20547;-70
2021/07/30 11:31:55;;;;;;;5.28;4.85;;;32.00;90.30;;;;;;5012571;28;20037;-70
2021/07/30 11:34:27;;;;;;;7.45;5.78;;;31.60;89.60;;;;;;5014463;28;20026;-70
2021/07/30 11:36:52;;;;;;;7.40;5.00;;;31.80;90.60;;;;;;5014692;28;20053;-71
2021/07/30 11:39:18;;;;;;;6.25;4.90;;;31.90;89.70;;;;;;5014775;28;20503;-70
2021/07/30 11:41:49;;;;;;;9.40;5.00;;;31.40;89.90;;;;;;5012299;28;20236;-70
2021/07/30 11:44:15;;;;;;;5.55;5.15;;;31.30;90.40;;;;;;4995058;28;20050;-69
2021/07/30 11:46:40;;;;;;;5.65;5.10;;;31.70;90.20;;;;;;4995014;28;20132;-70
2021/07/30 11:49:08;;;;;;;5.15;4.75;;;31.70;89.30;;;;;;4994966;28;20026;-69
2021/07/30 11:51:41;;;;;;;5.72;4.80;;;31.90;88.40;;;;;;5007992;28;20061;-70
2021/07/30 11:54:06;;;;;;;7.60;5.30;;;32.70;87.30;;;;;;5014768;28;20072;-69
2021/07/30 11:56:42;;;;;;;5.07;4.47;;;31.30;89.80;;;;;;5014098;28;20034;-70
2021/07/30 11:59:08;;;;;;;6.25;4.85;;;31.10;89.20;;;;;;5014530;28;20022;-70
2021/07/30 12:01:34;;;;;;;5.70;5.13;;;31.50;90.20;;;;;;5014805;28;20053;-70
2021/07/30 12:04:09;;;;;;;8.02;5.18;;;31.70;88.40;;;;;;5014677;28;20108;-69
2021/07/30 12:06:39;;;;;;;5.28;4.80;;;31.40;87.70;;;;;;5013557;28;20053;-69
2021/07/30 12:09:07;;;;;;;5.93;4.90;;;31.00;89.00;;;;;;5014374;28;20206;-71
2021/07/30 12:11:34;;;;;;;7.07;5.55;;;31.10;89.20;;;;;;5014234;28;20080;-69
2021/07/30 12:14:00;;;;;;;7.35;4.93;;;31.60;88.30;;;;;;5014353;28;20014;-69
2021/07/30 12:16:27;;;;;;;5.60;5.07;;;32.30;88.40;;;;;;5013612;28;20022;-70
2021/07/30 12:18:53;;;;;;;6.18;4.55;;;32.00;87.90;;;;;;5014513;28;20421;-69
2021/07/30 12:21:19;;;;;;;7.25;4.75;;;31.50;86.80;;;;;;5013961;28;20029;-70
2021/07/30 12:23:44;;;;;;;5.40;4.90;;;30.80;88.50;;;;;;5014061;28;20038;-70
2021/07/30 12:26:33;;;;;;;5.95;5.18;;;30.60;90.50;;;;;;5013342;28;20069;-71
2021/07/30 12:28:58;;;;;;;4.75;4.45;;;30.70;90.40;;;;;;5013816;28;20498;-70
2021/07/30 12:31:24;;;;;;;6.15;5.18;;;30.90;90.30;;;;;;5014088;28;20029;-70
2021/07/30 12:33:50;;;;;;;5.55;5.15;;;30.70;90.30;;;;;;5014229;28;20102;-71
2021/07/30 12:36:16;;;;;;;5.45;5.05;;;30.50;90.60;;;;;;5012893;28;20032;-70
2021/07/30 12:39:03;;;;;;;5.88;5.30;;;30.40;91.00;;;;;;5013783;28;20472;-69
2021/07/30 12:41:30;;;;;;;6.13;4.82;;;30.30;91.60;;;;;;5013565;28;20100;-69
2021/07/30 12:44:11;;;;;;;5.75;5.18;;;30.40;90.80;;;;;;4993806;28;20471;-70
2021/07/30 12:46:43;;;;;;;6.82;4.95;;;30.40;91.10;;;;;;4994000;28;20461;-71
2021/07/30 12:49:13;;;;;;;9.50;5.32;;;29.60;91.80;;;;;;4994127;28;20034;-69